sensor_id;sensor_type;location;lat;lon;timestamp;P1;durP1;ratioP1;P2;durP2;ratioP2
20758;SDS011;10539;53.686;9.158;2023-06-10T00:01:27;14.00;;;4.87;;
20758;SDS011;10539;53.686;9.158;2023-06-10T00:03:52;13.77;;;5.30;;
20758;SDS011;10539;53.686;9.158;2023-06-10T00:06:19;11.27;;;5.00;;
20758;SDS011;10539;53.686;9.158;2023-06-10T00:08:46;19.20;;;5.43;;
20758;SDS011;10539;53.686;9.158;2023-06-10T00:11:13;10.83;;;5.40;;
20758;SDS011;10539;53.686;9.158;2023-06-10T00:13:38;12.87;;;5.50;;
20758;SDS011;10539;53.686;9.158;2023-06-10T00:16:05;15.97;;;5.70;;
20758;SDS011;10539;53.686;9.158;2023-06-10T00:18:31;13.97;;;5.83;;
20758;SDS011;10539;53.686;9.158;2023-06-10T00:20:57;18.63;;;6.43;;
20758;SDS011;10539;53.686;9.158;2023-06-10T00:23:28;14.90;;;6.10;;
20758;SDS011;10539;53.686;9.158;2023-06-10T00:25:57;16.53;;;6.43;;
20758;SDS011;10539;53.686;9.158;2023-06-10T00:28:24;15.20;;;5.60;;
20758;SDS011;10539;53.686;9.158;2023-06-10T00:30:50;13.97;;;6.47;;
20758;SDS011;10539;53.686;9.158;2023-06-10T00:33:16;12.77;;;6.57;;
20758;SDS011;10539;53.686;9.158;2023-06-10T00:35:42;17.67;;;6.60;;
20758;SDS011;10539;53.686;9.158;2023-06-10T00:38:08;15.13;;;6.30;;
20758;SDS011;10539;53.686;9.158;2023-06-10T00:40:38;22.47;;;7.40;;
20758;SDS011;10539;53.686;9.158;2023-06-10T00:43:06;16.00;;;6.93;;
20758;SDS011;10539;53.686;9.158;2023-06-10T00:45:32;17.37;;;7.23;;
20758;SDS011;10539;53.686;9.158;2023-06-10T00:47:58;19.40;;;6.87;;
20758;SDS011;10539;53.686;9.158;2023-06-10T00:50:25;20.10;;;7.27;;
20758;SDS011;10539;53.686;9.158;2023-06-10T00:52:52;18.20;;;6.63;;
20758;SDS011;10539;53.686;9.158;2023-06-10T00:55:21;17.30;;;6.20;;
20758;SDS011;10539;53.686;9.158;2023-06-10T00:57:48;16.03;;;7.27;;
20758;SDS011;10539;53.686;9.158;2023-06-10T01:00:14;21.90;;;7.57;;
20758;SDS011;10539;53.686;9.158;2023-06-10T01:02:41;22.70;;;7.20;;
20758;SDS011;10539;53.686;9.158;2023-06-10T01:05:07;20.10;;;7.17;;
20758;SDS011;10539;53.686;9.158;2023-06-10T01:10:06;18.50;;;6.50;;
20758;SDS011;10539;53.686;9.158;2023-06-10T01:12:49;14.67;;;6.47;;
20758;SDS011;10539;53.686;9.158;2023-06-10T01:15:21;19.23;;;6.70;;
20758;SDS011;10539;53.686;9.158;2023-06-10T01:17:54;20.23;;;7.17;;
20758;SDS011;10539;53.686;9.158;2023-06-10T01:20:23;19.17;;;6.80;;
20758;SDS011;10539;53.686;9.158;2023-06-10T01:22:49;19.03;;;6.67;;
20758;SDS011;10539;53.686;9.158;2023-06-10T01:25:16;17.10;;;6.70;;
20758;SDS011;10539;53.686;9.158;2023-06-10T01:27:42;16.77;;;6.47;;
20758;SDS011;10539;53.686;9.158;2023-06-10T01:30:13;17.10;;;6.57;;
20758;SDS011;10539;53.686;9.158;2023-06-10T01:32:45;15.17;;;6.70;;
20758;SDS011;10539;53.686;9.158;2023-06-10T01:35:13;22.43;;;6.40;;
20758;SDS011;10539;53.686;9.158;2023-06-10T01:37:43;18.20;;;6.23;;
20758;SDS011;10539;53.686;9.158;2023-06-10T01:40:11;18.37;;;6.97;;
20758;SDS011;10539;53.686;9.158;2023-06-10T01:42:38;15.60;;;6.20;;
20758;SDS011;10539;53.686;9.158;2023-06-10T01:45:04;14.47;;;6.37;;
20758;SDS011;10539;53.686;9.158;2023-06-10T01:47:30;16.40;;;6.80;;
20758;SDS011;10539;53.686;9.158;2023-06-10T01:49:56;15.73;;;6.17;;
20758;SDS011;10539;53.686;9.158;2023-06-10T01:52:22;18.57;;;7.10;;
20758;SDS011;10539;53.686;9.158;2023-06-10T01:54:47;22.17;;;7.97;;
20758;SDS011;10539;53.686;9.158;2023-06-10T01:57:13;17.17;;;7.73;;
20758;SDS011;10539;53.686;9.158;2023-06-10T01:59:39;14.80;;;6.97;;
20758;SDS011;10539;53.686;9.158;2023-06-10T02:02:05;16.30;;;6.63;;
20758;SDS011;10539;53.686;9.158;2023-06-10T02:04:31;14.33;;;6.40;;
20758;SDS011;10539;53.686;9.158;2023-06-10T02:06:56;17.13;;;6.70;;
20758;SDS011;10539;53.686;9.158;2023-06-10T02:09:22;22.03;;;7.13;;
20758;SDS011;10539;53.686;9.158;2023-06-10T02:11:48;16.57;;;7.03;;
20758;SDS011;10539;53.686;9.158;2023-06-10T02:14:14;22.33;;;6.93;;
20758;SDS011;10539;53.686;9.158;2023-06-10T02:16:40;15.70;;;7.13;;
20758;SDS011;10539;53.686;9.158;2023-06-10T02:19:06;13.87;;;6.03;;
20758;SDS011;10539;53.686;9.158;2023-06-10T02:21:32;16.20;;;6.10;;
20758;SDS011;10539;53.686;9.158;2023-06-10T02:23:59;19.37;;;6.87;;
20758;SDS011;10539;53.686;9.158;2023-06-10T02:26:26;17.37;;;6.97;;
20758;SDS011;10539;53.686;9.158;2023-06-10T02:28:51;17.40;;;6.40;;
20758;SDS011;10539;53.686;9.158;2023-06-10T02:31:17;15.80;;;6.57;;
20758;SDS011;10539;53.686;9.158;2023-06-10T02:33:43;16.80;;;6.50;;
20758;SDS011;10539;53.686;9.158;2023-06-10T02:36:09;18.33;;;6.53;;
20758;SDS011;10539;53.686;9.158;2023-06-10T02:38:38;17.03;;;6.70;;
20758;SDS011;10539;53.686;9.158;2023-06-10T02:41:07;15.90;;;6.20;;
20758;SDS011;10539;53.686;9.158;2023-06-10T02:43:33;18.60;;;6.90;;
20758;SDS011;10539;53.686;9.158;2023-06-10T02:45:59;18.50;;;7.07;;
20758;SDS011;10539;53.686;9.158;2023-06-10T02:48:25;19.03;;;7.13;;
20758;SDS011;10539;53.686;9.158;2023-06-10T02:50:51;21.10;;;6.97;;
20758;SDS011;10539;53.686;9.158;2023-06-10T02:53:17;20.40;;;7.97;;
20758;SDS011;10539;53.686;9.158;2023-06-10T02:55:43;19.33;;;7.23;;
20758;SDS011;10539;53.686;9.158;2023-06-10T02:58:09;20.33;;;7.50;;
20758;SDS011;10539;53.686;9.158;2023-06-10T03:00:34;16.97;;;8.03;;
20758;SDS011;10539;53.686;9.158;2023-06-10T03:03:02;17.17;;;6.57;;
20758;SDS011;10539;53.686;9.158;2023-06-10T03:05:30;13.87;;;6.70;;
20758;SDS011;10539;53.686;9.158;2023-06-10T03:07:56;15.33;;;6.77;;
20758;SDS011;10539;53.686;9.158;2023-06-10T03:10:22;16.87;;;7.37;;
20758;SDS011;10539;53.686;9.158;2023-06-10T03:12:48;16.33;;;6.60;;
20758;SDS011;10539;53.686;9.158;2023-06-10T03:15:13;12.30;;;6.67;;
20758;SDS011;10539;53.686;9.158;2023-06-10T03:17:40;17.80;;;5.97;;
20758;SDS011;10539;53.686;9.158;2023-06-10T03:20:06;11.47;;;6.43;;
20758;SDS011;10539;53.686;9.158;2023-06-10T03:22:38;9.73;;;5.83;;
20758;SDS011;10539;53.686;9.158;2023-06-10T03:25:04;16.57;;;6.87;;
20758;SDS011;10539;53.686;9.158;2023-06-10T03:27:31;11.97;;;6.07;;
20758;SDS011;10539;53.686;9.158;2023-06-10T03:29:57;11.63;;;6.20;;
20758;SDS011;10539;53.686;9.158;2023-06-10T03:32:23;16.97;;;6.73;;
20758;SDS011;10539;53.686;9.158;2023-06-10T03:34:49;13.73;;;6.03;;
20758;SDS011;10539;53.686;9.158;2023-06-10T03:37:16;13.63;;;6.20;;
20758;SDS011;10539;53.686;9.158;2023-06-10T03:39:41;12.63;;;6.63;;
20758;SDS011;10539;53.686;9.158;2023-06-10T03:42:07;14.07;;;6.13;;
20758;SDS011;10539;53.686;9.158;2023-06-10T03:44:33;14.17;;;6.30;;
20758;SDS011;10539;53.686;9.158;2023-06-10T03:46:59;11.90;;;5.77;;
20758;SDS011;10539;53.686;9.158;2023-06-10T03:49:25;11.90;;;6.10;;
20758;SDS011;10539;53.686;9.158;2023-06-10T03:51:54;12.90;;;7.07;;
20758;SDS011;10539;53.686;9.158;2023-06-10T03:54:20;14.00;;;6.30;;
20758;SDS011;10539;53.686;9.158;2023-06-10T03:56:45;14.10;;;6.33;;
20758;SDS011;10539;53.686;9.158;2023-06-10T03:59:13;14.33;;;6.00;;
20758;SDS011;10539;53.686;9.158;2023-06-10T04:01:38;15.03;;;6.03;;
20758;SDS011;10539;53.686;9.158;2023-06-10T04:04:06;12.53;;;5.37;;
20758;SDS011;10539;53.686;9.158;2023-06-10T04:06:32;9.97;;;5.80;;
20758;SDS011;10539;53.686;9.158;2023-06-10T04:08:57;11.63;;;5.93;;
20758;SDS011;10539;53.686;9.158;2023-06-10T04:11:24;15.30;;;5.60;;
20758;SDS011;10539;53.686;9.158;2023-06-10T04:13:49;15.27;;;6.50;;
20758;SDS011;10539;53.686;9.158;2023-06-10T04:16:15;14.07;;;5.37;;
20758;SDS011;10539;53.686;9.158;2023-06-10T04:18:41;13.07;;;5.60;;
20758;SDS011;10539;53.686;9.158;2023-06-10T04:21:07;14.47;;;5.47;;
20758;SDS011;10539;53.686;9.158;2023-06-10T04:23:35;17.10;;;5.43;;
20758;SDS011;10539;53.686;9.158;2023-06-10T04:26:02;10.97;;;4.67;;
20758;SDS011;10539;53.686;9.158;2023-06-10T04:28:27;18.50;;;5.83;;
20758;SDS011;10539;53.686;9.158;2023-06-10T04:30:53;15.20;;;4.80;;
20758;SDS011;10539;53.686;9.158;2023-06-10T04:33:19;12.60;;;5.10;;
20758;SDS011;10539;53.686;9.158;2023-06-10T04:35:45;14.33;;;5.20;;
20758;SDS011;10539;53.686;9.158;2023-06-10T04:38:12;10.20;;;4.77;;
20758;SDS011;10539;53.686;9.158;2023-06-10T04:40:38;12.30;;;4.57;;
20758;SDS011;10539;53.686;9.158;2023-06-10T04:43:05;12.33;;;5.30;;
20758;SDS011;10539;53.686;9.158;2023-06-10T04:45:30;18.83;;;5.60;;
20758;SDS011;10539;53.686;9.158;2023-06-10T04:47:56;11.87;;;5.50;;
20758;SDS011;10539;53.686;9.158;2023-06-10T04:50:23;13.60;;;5.70;;
20758;SDS011;10539;53.686;9.158;2023-06-10T04:52:48;11.10;;;5.20;;
20758;SDS011;10539;53.686;9.158;2023-06-10T04:55:15;10.50;;;4.67;;
20758;SDS011;10539;53.686;9.158;2023-06-10T04:57:41;9.97;;;5.17;;
20758;SDS011;10539;53.686;9.158;2023-06-10T05:00:07;10.67;;;5.33;;
20758;SDS011;10539;53.686;9.158;2023-06-10T05:02:33;11.87;;;4.60;;
20758;SDS011;10539;53.686;9.158;2023-06-10T05:04:59;12.83;;;5.23;;
20758;SDS011;10539;53.686;9.158;2023-06-10T05:07:25;12.53;;;5.20;;
20758;SDS011;10539;53.686;9.158;2023-06-10T05:09:51;11.67;;;4.10;;
20758;SDS011;10539;53.686;9.158;2023-06-10T05:12:16;14.43;;;4.17;;
20758;SDS011;10539;53.686;9.158;2023-06-10T05:14:42;11.97;;;4.13;;
20758;SDS011;10539;53.686;9.158;2023-06-10T05:17:09;12.07;;;4.00;;
20758;SDS011;10539;53.686;9.158;2023-06-10T05:19:35;12.33;;;4.37;;
20758;SDS011;10539;53.686;9.158;2023-06-10T05:22:02;8.57;;;3.63;;
20758;SDS011;10539;53.686;9.158;2023-06-10T05:24:28;11.93;;;3.60;;
20758;SDS011;10539;53.686;9.158;2023-06-10T05:26:54;6.50;;;3.50;;
20758;SDS011;10539;53.686;9.158;2023-06-10T05:29:20;12.20;;;3.87;;
20758;SDS011;10539;53.686;9.158;2023-06-10T05:31:45;12.37;;;3.50;;
20758;SDS011;10539;53.686;9.158;2023-06-10T05:34:11;10.63;;;3.30;;
20758;SDS011;10539;53.686;9.158;2023-06-10T05:36:37;9.23;;;3.63;;
20758;SDS011;10539;53.686;9.158;2023-06-10T05:39:02;16.80;;;3.63;;
20758;SDS011;10539;53.686;9.158;2023-06-10T05:41:28;8.33;;;3.60;;
20758;SDS011;10539;53.686;9.158;2023-06-10T05:43:54;8.80;;;3.20;;
20758;SDS011;10539;53.686;9.158;2023-06-10T05:46:20;12.27;;;3.10;;
20758;SDS011;10539;53.686;9.158;2023-06-10T05:48:45;14.13;;;3.40;;
20758;SDS011;10539;53.686;9.158;2023-06-10T05:51:11;8.37;;;3.00;;
20758;SDS011;10539;53.686;9.158;2023-06-10T05:53:37;8.97;;;3.10;;
20758;SDS011;10539;53.686;9.158;2023-06-10T05:56:03;7.67;;;2.90;;
20758;SDS011;10539;53.686;9.158;2023-06-10T05:58:29;10.33;;;2.93;;
20758;SDS011;10539;53.686;9.158;2023-06-10T06:00:55;7.37;;;2.57;;
20758;SDS011;10539;53.686;9.158;2023-06-10T06:03:20;9.97;;;2.67;;
20758;SDS011;10539;53.686;9.158;2023-06-10T06:05:46;6.20;;;2.37;;
20758;SDS011;10539;53.686;9.158;2023-06-10T06:08:12;13.23;;;2.67;;
20758;SDS011;10539;53.686;9.158;2023-06-10T06:10:44;11.20;;;2.27;;
20758;SDS011;10539;53.686;9.158;2023-06-10T06:13:10;10.23;;;2.43;;
20758;SDS011;10539;53.686;9.158;2023-06-10T06:15:36;7.73;;;2.33;;
20758;SDS011;10539;53.686;9.158;2023-06-10T06:18:02;9.43;;;2.33;;
20758;SDS011;10539;53.686;9.158;2023-06-10T06:20:27;8.87;;;2.70;;
20758;SDS011;10539;53.686;9.158;2023-06-10T06:22:54;7.23;;;2.07;;
20758;SDS011;10539;53.686;9.158;2023-06-10T06:25:19;12.23;;;2.30;;
20758;SDS011;10539;53.686;9.158;2023-06-10T06:27:45;5.70;;;2.20;;
20758;SDS011;10539;53.686;9.158;2023-06-10T06:30:11;10.17;;;2.40;;
20758;SDS011;10539;53.686;9.158;2023-06-10T06:32:36;8.60;;;2.43;;
20758;SDS011;10539;53.686;9.158;2023-06-10T06:35:02;13.27;;;3.17;;
20758;SDS011;10539;53.686;9.158;2023-06-10T06:37:31;7.37;;;2.60;;
20758;SDS011;10539;53.686;9.158;2023-06-10T06:39:57;5.43;;;2.40;;
20758;SDS011;10539;53.686;9.158;2023-06-10T06:42:23;13.17;;;3.20;;
20758;SDS011;10539;53.686;9.158;2023-06-10T06:44:48;9.70;;;2.93;;
20758;SDS011;10539;53.686;9.158;2023-06-10T06:47:14;6.13;;;2.37;;
20758;SDS011;10539;53.686;9.158;2023-06-10T06:49:42;10.20;;;2.80;;
20758;SDS011;10539;53.686;9.158;2023-06-10T06:52:08;9.17;;;2.67;;
20758;SDS011;10539;53.686;9.158;2023-06-10T06:54:34;9.47;;;2.43;;
20758;SDS011;10539;53.686;9.158;2023-06-10T06:57:00;8.03;;;2.77;;
20758;SDS011;10539;53.686;9.158;2023-06-10T06:59:25;7.07;;;2.40;;
20758;SDS011;10539;53.686;9.158;2023-06-10T07:01:51;8.97;;;2.50;;
20758;SDS011;10539;53.686;9.158;2023-06-10T07:04:19;5.53;;;1.90;;
20758;SDS011;10539;53.686;9.158;2023-06-10T07:06:46;17.03;;;3.03;;
20758;SDS011;10539;53.686;9.158;2023-06-10T07:09:15;9.07;;;2.23;;
20758;SDS011;10539;53.686;9.158;2023-06-10T07:11:41;11.90;;;2.67;;
20758;SDS011;10539;53.686;9.158;2023-06-10T07:14:07;9.97;;;2.63;;
20758;SDS011;10539;53.686;9.158;2023-06-10T07:16:33;4.57;;;2.00;;
20758;SDS011;10539;53.686;9.158;2023-06-10T07:18:59;6.87;;;2.30;;
20758;SDS011;10539;53.686;9.158;2023-06-10T07:21:24;8.00;;;1.70;;
20758;SDS011;10539;53.686;9.158;2023-06-10T07:23:50;7.00;;;1.80;;
20758;SDS011;10539;53.686;9.158;2023-06-10T07:26:19;8.73;;;2.53;;
20758;SDS011;10539;53.686;9.158;2023-06-10T07:28:46;6.13;;;2.30;;
20758;SDS011;10539;53.686;9.158;2023-06-10T07:31:12;9.63;;;2.07;;
20758;SDS011;10539;53.686;9.158;2023-06-10T07:33:38;9.27;;;2.37;;
20758;SDS011;10539;53.686;9.158;2023-06-10T07:36:06;10.67;;;2.50;;
20758;SDS011;10539;53.686;9.158;2023-06-10T07:38:32;8.57;;;2.33;;
20758;SDS011;10539;53.686;9.158;2023-06-10T07:40:59;7.63;;;2.30;;
20758;SDS011;10539;53.686;9.158;2023-06-10T07:43:25;6.67;;;2.10;;
20758;SDS011;10539;53.686;9.158;2023-06-10T07:45:51;7.27;;;2.40;;
20758;SDS011;10539;53.686;9.158;2023-06-10T07:48:16;6.13;;;2.20;;
20758;SDS011;10539;53.686;9.158;2023-06-10T07:50:42;6.97;;;2.33;;
20758;SDS011;10539;53.686;9.158;2023-06-10T07:53:08;12.40;;;2.43;;
20758;SDS011;10539;53.686;9.158;2023-06-10T07:55:33;9.67;;;2.23;;
20758;SDS011;10539;53.686;9.158;2023-06-10T07:57:59;9.47;;;2.60;;
20758;SDS011;10539;53.686;9.158;2023-06-10T08:00:25;7.67;;;2.00;;
20758;SDS011;10539;53.686;9.158;2023-06-10T08:02:51;5.83;;;2.00;;
20758;SDS011;10539;53.686;9.158;2023-06-10T08:05:17;7.17;;;2.27;;
20758;SDS011;10539;53.686;9.158;2023-06-10T08:07:43;4.27;;;1.67;;
20758;SDS011;10539;53.686;9.158;2023-06-10T08:10:09;5.77;;;2.57;;
20758;SDS011;10539;53.686;9.158;2023-06-10T08:12:35;9.03;;;2.73;;
20758;SDS011;10539;53.686;9.158;2023-06-10T08:15:02;5.37;;;2.30;;
20758;SDS011;10539;53.686;9.158;2023-06-10T08:17:31;8.07;;;2.00;;
20758;SDS011;10539;53.686;9.158;2023-06-10T08:19:56;8.73;;;2.13;;
20758;SDS011;10539;53.686;9.158;2023-06-10T08:22:22;6.13;;;2.00;;
20758;SDS011;10539;53.686;9.158;2023-06-10T08:24:48;7.43;;;2.03;;
20758;SDS011;10539;53.686;9.158;2023-06-10T08:27:14;8.70;;;2.90;;
20758;SDS011;10539;53.686;9.158;2023-06-10T08:29:40;7.73;;;2.50;;
20758;SDS011;10539;53.686;9.158;2023-06-10T08:32:05;6.57;;;2.30;;
20758;SDS011;10539;53.686;9.158;2023-06-10T08:34:35;7.13;;;2.37;;
20758;SDS011;10539;53.686;9.158;2023-06-10T08:37:01;7.43;;;2.20;;
20758;SDS011;10539;53.686;9.158;2023-06-10T08:39:28;8.47;;;2.00;;
20758;SDS011;10539;53.686;9.158;2023-06-10T08:42:04;8.60;;;2.37;;
20758;SDS011;10539;53.686;9.158;2023-06-10T08:44:58;7.40;;;2.23;;
20758;SDS011;10539;53.686;9.158;2023-06-10T08:47:28;7.53;;;2.57;;
20758;SDS011;10539;53.686;9.158;2023-06-10T08:50:01;6.20;;;2.58;;
20758;SDS011;10539;53.686;9.158;2023-06-10T08:52:29;9.00;;;2.28;;
20758;SDS011;10539;53.686;9.158;2023-06-10T08:55:10;9.80;;;2.43;;
20758;SDS011;10539;53.686;9.158;2023-06-10T08:57:40;7.63;;;2.45;;
20758;SDS011;10539;53.686;9.158;2023-06-10T09:00:07;7.80;;;2.53;;
20758;SDS011;10539;53.686;9.158;2023-06-10T09:02:33;11.50;;;2.53;;
20758;SDS011;10539;53.686;9.158;2023-06-10T09:05:00;12.20;;;2.90;;
20758;SDS011;10539;53.686;9.158;2023-06-10T09:07:27;6.83;;;2.37;;
20758;SDS011;10539;53.686;9.158;2023-06-10T09:09:56;8.57;;;2.67;;
20758;SDS011;10539;53.686;9.158;2023-06-10T09:12:24;7.28;;;2.40;;
20758;SDS011;10539;53.686;9.158;2023-06-10T09:14:50;7.47;;;2.10;;
20758;SDS011;10539;53.686;9.158;2023-06-10T09:17:16;7.03;;;2.70;;
20758;SDS011;10539;53.686;9.158;2023-06-10T09:19:42;6.82;;;2.50;;
20758;SDS011;10539;53.686;9.158;2023-06-10T09:22:09;9.77;;;2.35;;
20758;SDS011;10539;53.686;9.158;2023-06-10T09:24:35;8.10;;;2.28;;
20758;SDS011;10539;53.686;9.158;2023-06-10T09:27:02;4.63;;;1.92;;
20758;SDS011;10539;53.686;9.158;2023-06-10T09:29:30;10.85;;;2.60;;
20758;SDS011;10539;53.686;9.158;2023-06-10T09:31:56;6.72;;;2.67;;
20758;SDS011;10539;53.686;9.158;2023-06-10T09:34:24;6.70;;;2.60;;
20758;SDS011;10539;53.686;9.158;2023-06-10T09:36:51;6.78;;;2.42;;
20758;SDS011;10539;53.686;9.158;2023-06-10T09:39:17;8.23;;;2.40;;
20758;SDS011;10539;53.686;9.158;2023-06-10T09:41:44;9.73;;;2.53;;
20758;SDS011;10539;53.686;9.158;2023-06-10T09:44:18;11.30;;;2.85;;
20758;SDS011;10539;53.686;9.158;2023-06-10T09:46:48;6.97;;;2.50;;
20758;SDS011;10539;53.686;9.158;2023-06-10T09:49:18;5.43;;;2.42;;
20758;SDS011;10539;53.686;9.158;2023-06-10T09:51:54;13.15;;;2.75;;
20758;SDS011;10539;53.686;9.158;2023-06-10T09:54:20;6.35;;;2.60;;
20758;SDS011;10539;53.686;9.158;2023-06-10T09:56:47;14.02;;;3.13;;
20758;SDS011;10539;53.686;9.158;2023-06-10T09:59:14;7.38;;;2.30;;
20758;SDS011;10539;53.686;9.158;2023-06-10T10:01:40;9.23;;;2.25;;
20758;SDS011;10539;53.686;9.158;2023-06-10T10:04:05;10.50;;;3.03;;
20758;SDS011;10539;53.686;9.158;2023-06-10T10:06:31;9.80;;;2.72;;
20758;SDS011;10539;53.686;9.158;2023-06-10T10:08:57;7.60;;;2.55;;
20758;SDS011;10539;53.686;9.158;2023-06-10T10:11:23;6.60;;;2.22;;
20758;SDS011;10539;53.686;9.158;2023-06-10T10:13:51;9.63;;;2.50;;
20758;SDS011;10539;53.686;9.158;2023-06-10T10:16:21;4.72;;;2.30;;
20758;SDS011;10539;53.686;9.158;2023-06-10T10:18:54;6.18;;;2.67;;
20758;SDS011;10539;53.686;9.158;2023-06-10T10:21:25;6.00;;;2.40;;
20758;SDS011;10539;53.686;9.158;2023-06-10T10:24:03;6.57;;;2.13;;
20758;SDS011;10539;53.686;9.158;2023-06-10T10:26:34;6.32;;;2.20;;
20758;SDS011;10539;53.686;9.158;2023-06-10T10:31:56;12.35;;;2.78;;
20758;SDS011;10539;53.686;9.158;2023-06-10T10:37:36;7.15;;;2.50;;
20758;SDS011;10539;53.686;9.158;2023-06-10T10:40:04;7.70;;;2.42;;
20758;SDS011;10539;53.686;9.158;2023-06-10T10:42:32;8.75;;;2.22;;
20758;SDS011;10539;53.686;9.158;2023-06-10T10:44:59;6.35;;;2.22;;
20758;SDS011;10539;53.686;9.158;2023-06-10T10:47:26;5.50;;;2.33;;
20758;SDS011;10539;53.686;9.158;2023-06-10T10:49:56;6.03;;;2.40;;
20758;SDS011;10539;53.686;9.158;2023-06-10T10:52:25;8.30;;;2.67;;
20758;SDS011;10539;53.686;9.158;2023-06-10T10:54:53;7.00;;;2.80;;
20758;SDS011;10539;53.686;9.158;2023-06-10T10:57:22;7.68;;;2.67;;
20758;SDS011;10539;53.686;9.158;2023-06-10T11:05:20;6.80;;;2.90;;
20758;SDS011;10539;53.686;9.158;2023-06-10T11:10:57;6.20;;;2.35;;
20758;SDS011;10539;53.686;9.158;2023-06-10T11:13:29;9.45;;;2.30;;
20758;SDS011;10539;53.686;9.158;2023-06-10T11:15:58;7.85;;;2.40;;
20758;SDS011;10539;53.686;9.158;2023-06-10T11:18:25;5.78;;;2.58;;
20758;SDS011;10539;53.686;9.158;2023-06-10T11:20:55;7.78;;;2.38;;
20758;SDS011;10539;53.686;9.158;2023-06-10T11:23:30;6.75;;;2.38;;
20758;SDS011;10539;53.686;9.158;2023-06-10T11:26:16;5.68;;;2.55;;
20758;SDS011;10539;53.686;9.158;2023-06-10T11:31:33;4.57;;;2.42;;
20758;SDS011;10539;53.686;9.158;2023-06-10T11:34:04;8.85;;;3.35;;
20758;SDS011;10539;53.686;9.158;2023-06-10T11:36:33;8.73;;;2.70;;
20758;SDS011;10539;53.686;9.158;2023-06-10T11:39:03;7.50;;;2.60;;
20758;SDS011;10539;53.686;9.158;2023-06-10T11:41:30;9.75;;;2.72;;
20758;SDS011;10539;53.686;9.158;2023-06-10T11:50:42;5.28;;;2.28;;
20758;SDS011;10539;53.686;9.158;2023-06-10T11:53:54;4.25;;;2.40;;
20758;SDS011;10539;53.686;9.158;2023-06-10T12:00:43;4.85;;;2.38;;
20758;SDS011;10539;53.686;9.158;2023-06-10T12:04:16;7.10;;;2.78;;
20758;SDS011;10539;53.686;9.158;2023-06-10T12:07:35;7.70;;;2.50;;
20758;SDS011;10539;53.686;9.158;2023-06-10T12:10:29;6.40;;;2.92;;
20758;SDS011;10539;53.686;9.158;2023-06-10T12:13:25;9.18;;;2.58;;
20758;SDS011;10539;53.686;9.158;2023-06-10T12:16:33;7.03;;;2.38;;
20758;SDS011;10539;53.686;9.158;2023-06-10T12:20:23;5.30;;;2.67;;
20758;SDS011;10539;53.686;9.158;2023-06-10T12:45:34;11.18;;;3.30;;
20758;SDS011;10539;53.686;9.158;2023-06-10T12:51:58;7.85;;;2.88;;
20758;SDS011;10539;53.686;9.158;2023-06-10T12:54:24;11.18;;;3.00;;
20758;SDS011;10539;53.686;9.158;2023-06-10T12:56:50;7.13;;;3.08;;
20758;SDS011;10539;53.686;9.158;2023-06-10T12:59:16;8.05;;;3.10;;
20758;SDS011;10539;53.686;9.158;2023-06-10T13:01:42;8.32;;;3.10;;
20758;SDS011;10539;53.686;9.158;2023-06-10T13:04:07;10.57;;;2.90;;
20758;SDS011;10539;53.686;9.158;2023-06-10T13:06:33;8.93;;;3.15;;
20758;SDS011;10539;53.686;9.158;2023-06-10T13:09:02;8.85;;;2.53;;
20758;SDS011;10539;53.686;9.158;2023-06-10T13:11:28;7.07;;;2.80;;
20758;SDS011;10539;53.686;9.158;2023-06-10T13:13:54;6.95;;;3.20;;
20758;SDS011;10539;53.686;9.158;2023-06-10T13:16:19;7.80;;;3.08;;
20758;SDS011;10539;53.686;9.158;2023-06-10T13:18:45;7.53;;;3.15;;
20758;SDS011;10539;53.686;9.158;2023-06-10T13:21:11;6.60;;;2.85;;
20758;SDS011;10539;53.686;9.158;2023-06-10T13:23:36;9.20;;;3.10;;
20758;SDS011;10539;53.686;9.158;2023-06-10T13:26:02;5.22;;;2.90;;
20758;SDS011;10539;53.686;9.158;2023-06-10T13:28:28;8.40;;;3.53;;
20758;SDS011;10539;53.686;9.158;2023-06-10T13:30:54;6.60;;;3.15;;
20758;SDS011;10539;53.686;9.158;2023-06-10T13:33:19;7.28;;;2.90;;
20758;SDS011;10539;53.686;9.158;2023-06-10T13:35:46;6.68;;;2.90;;
20758;SDS011;10539;53.686;9.158;2023-06-10T13:38:12;11.30;;;3.05;;
20758;SDS011;10539;53.686;9.158;2023-06-10T13:40:37;7.88;;;3.10;;
20758;SDS011;10539;53.686;9.158;2023-06-10T13:43:03;10.07;;;3.58;;
20758;SDS011;10539;53.686;9.158;2023-06-10T13:45:29;12.90;;;3.78;;
20758;SDS011;10539;53.686;9.158;2023-06-10T13:47:54;6.03;;;2.90;;
20758;SDS011;10539;53.686;9.158;2023-06-10T13:50:20;5.97;;;2.95;;
20758;SDS011;10539;53.686;9.158;2023-06-10T13:52:46;11.10;;;3.97;;
20758;SDS011;10539;53.686;9.158;2023-06-10T13:55:12;6.55;;;3.38;;
20758;SDS011;10539;53.686;9.158;2023-06-10T13:57:37;7.75;;;3.38;;
20758;SDS011;10539;53.686;9.158;2023-06-10T14:00:03;6.75;;;3.70;;
20758;SDS011;10539;53.686;9.158;2023-06-10T14:02:30;7.93;;;3.45;;
20758;SDS011;10539;53.686;9.158;2023-06-10T14:04:56;8.82;;;3.63;;
20758;SDS011;10539;53.686;9.158;2023-06-10T14:07:22;8.73;;;3.80;;
20758;SDS011;10539;53.686;9.158;2023-06-10T14:09:47;11.80;;;3.53;;
20758;SDS011;10539;53.686;9.158;2023-06-10T14:12:13;6.25;;;3.22;;
20758;SDS011;10539;53.686;9.158;2023-06-10T14:14:39;7.45;;;3.72;;
20758;SDS011;10539;53.686;9.158;2023-06-10T14:17:05;7.05;;;3.60;;
20758;SDS011;10539;53.686;9.158;2023-06-10T14:19:31;7.97;;;3.70;;
20758;SDS011;10539;53.686;9.158;2023-06-10T14:21:56;10.00;;;4.05;;
20758;SDS011;10539;53.686;9.158;2023-06-10T14:24:22;7.88;;;3.80;;
20758;SDS011;10539;53.686;9.158;2023-06-10T14:26:48;8.73;;;3.97;;
20758;SDS011;10539;53.686;9.158;2023-06-10T14:29:13;8.15;;;3.47;;
20758;SDS011;10539;53.686;9.158;2023-06-10T14:31:40;10.40;;;3.70;;
20758;SDS011;10539;53.686;9.158;2023-06-10T14:34:06;9.45;;;4.15;;
20758;SDS011;10539;53.686;9.158;2023-06-10T14:36:33;10.50;;;3.47;;
20758;SDS011;10539;53.686;9.158;2023-06-10T14:38:59;11.05;;;4.40;;
20758;SDS011;10539;53.686;9.158;2023-06-10T14:41:25;6.53;;;3.80;;
20758;SDS011;10539;53.686;9.158;2023-06-10T14:43:51;6.65;;;3.80;;
20758;SDS011;10539;53.686;9.158;2023-06-10T14:46:17;7.53;;;3.80;;
20758;SDS011;10539;53.686;9.158;2023-06-10T14:48:46;7.05;;;3.70;;
20758;SDS011;10539;53.686;9.158;2023-06-10T14:51:11;7.43;;;3.72;;
20758;SDS011;10539;53.686;9.158;2023-06-10T14:53:37;6.65;;;3.80;;
20758;SDS011;10539;53.686;9.158;2023-06-10T14:56:03;6.18;;;3.17;;
20758;SDS011;10539;53.686;9.158;2023-06-10T14:58:29;7.10;;;3.33;;
20758;SDS011;10539;53.686;9.158;2023-06-10T15:00:55;12.77;;;3.83;;
20758;SDS011;10539;53.686;9.158;2023-06-10T15:03:21;7.90;;;3.50;;
20758;SDS011;10539;53.686;9.158;2023-06-10T15:05:46;10.23;;;3.60;;
20758;SDS011;10539;53.686;9.158;2023-06-10T15:08:12;8.60;;;3.78;;
20758;SDS011;10539;53.686;9.158;2023-06-10T15:10:38;8.20;;;3.47;;
20758;SDS011;10539;53.686;9.158;2023-06-10T15:13:03;6.60;;;3.10;;
20758;SDS011;10539;53.686;9.158;2023-06-10T15:15:29;5.93;;;3.35;;
20758;SDS011;10539;53.686;9.158;2023-06-10T15:17:55;6.18;;;3.05;;
20758;SDS011;10539;53.686;9.158;2023-06-10T15:20:21;8.73;;;2.75;;
20758;SDS011;10539;53.686;9.158;2023-06-10T15:22:46;8.13;;;3.38;;
20758;SDS011;10539;53.686;9.158;2023-06-10T15:25:12;11.48;;;3.70;;
20758;SDS011;10539;53.686;9.158;2023-06-10T15:27:38;7.18;;;3.22;;
20758;SDS011;10539;53.686;9.158;2023-06-10T15:30:04;9.35;;;3.95;;
20758;SDS011;10539;53.686;9.158;2023-06-10T15:32:31;6.10;;;2.80;;
20758;SDS011;10539;53.686;9.158;2023-06-10T15:34:56;7.45;;;3.95;;
20758;SDS011;10539;53.686;9.158;2023-06-10T15:37:22;8.95;;;4.68;;
20758;SDS011;10539;53.686;9.158;2023-06-10T15:39:47;8.25;;;3.08;;
20758;SDS011;10539;53.686;9.158;2023-06-10T15:42:13;9.05;;;3.40;;